Time;durP1;ratioP1;P1;durP2;ratioP2;P2;SDS_P1;SDS_P2;PMS_P1;PMS_P2;Temp;Humidity;BMP_temperature;BMP_pressure;BME280_temperature;BME280_humidity;BME280_pressure;Samples;Min_cycle;Max_cycle;Signal;HPM_P1;HPM_P2
2024/02/07 00:04:14;;;;;;;2.33;0.60;;;22.50;47.80;;;;;;10416194;28;20069;-59
2024/02/07 00:09:16;;;;;;;1.02;0.57;;;22.50;47.70;;;;;;10413579;28;20088;-60
2024/02/07 00:14:18;;;;;;;1.17;0.60;;;22.50;47.60;;;;;;10411678;28;20076;-57
2024/02/07 00:19:21;;;;;;;0.80;0.50;;;22.50;47.40;;;;;;10426468;28;20080;-59
2024/02/07 00:24:22;;;;;;;1.45;0.73;;;22.40;47.70;;;;;;10425655;28;20044;-59
2024/02/07 00:29:24;;;;;;;1.77;0.70;;;22.40;47.40;;;;;;10418218;28;20076;-61
2024/02/07 00:34:27;;;;;;;2.15;0.77;;;22.40;47.50;;;;;;10403854;28;20053;-57
2024/02/07 00:39:29;;;;;;;2.25;0.75;;;22.40;47.40;;;;;;10415642;28;20053;-59
2024/02/07 00:44:30;;;;;;;1.13;0.50;;;22.40;47.30;;;;;;10415217;28;20084;-58
2024/02/07 00:49:33;;;;;;;0.95;0.50;;;22.30;47.20;;;;;;10418110;28;20459;-58
2024/02/07 00:54:35;;;;;;;1.10;0.70;;;22.40;47.00;;;;;;10432900;28;20533;-60
2024/02/07 00:59:37;;;;;;;1.80;0.70;;;22.30;47.00;;;;;;10428118;28;20489;-58
2024/02/07 01:04:40;;;;;;;0.57;0.40;;;22.20;47.00;;;;;;10388688;28;20073;-58
2024/02/07 01:09:41;;;;;;;1.08;0.50;;;22.20;47.00;;;;;;10390905;28;20073;-58
2024/02/07 01:14:43;;;;;;;1.63;0.70;;;22.20;47.00;;;;;;10401599;28;20033;-57
2024/02/07 01:19:48;;;;;;;1.42;0.70;;;22.20;46.90;;;;;;10410894;28;20044;-57
2024/02/07 01:24:50;;;;;;;0.93;0.43;;;22.20;46.90;;;;;;10403102;28;20045;-59
2024/02/07 01:29:55;;;;;;;0.65;0.50;;;22.10;47.10;;;;;;10400206;28;20052;-60
2024/02/07 01:34:58;;;;;;;1.50;0.50;;;22.00;47.10;;;;;;10403003;28;20046;-59
2024/02/07 01:39:59;;;;;;;1.33;0.60;;;22.00;47.20;;;;;;10399742;28;20118;-60
2024/02/07 01:45:23;;;;;;;0.50;0.45;;;21.90;47.40;;;;;;10391679;28;20050;-58
2024/02/07 01:50:26;;;;;;;1.30;0.50;;;21.90;47.40;;;;;;10393445;28;20050;-60
2024/02/07 01:55:28;;;;;;;0.60;0.40;;;21.80;47.40;;;;;;10400743;28;20045;-61
2024/02/07 02:00:30;;;;;;;1.10;0.60;;;21.80;47.60;;;;;;10406898;28;20049;-59
2024/02/07 02:05:33;;;;;;;0.60;0.47;;;21.90;47.50;;;;;;10409380;28;20081;-59
2024/02/07 02:10:35;;;;;;;1.23;0.60;;;21.80;47.40;;;;;;10404164;28;20074;-55
2024/02/07 02:15:37;;;;;;;1.25;0.60;;;21.80;47.40;;;;;;10393257;28;20042;-59
2024/02/07 02:20:41;;;;;;;1.00;0.50;;;21.90;47.40;;;;;;10397150;28;20080;-61
2024/02/07 02:26:23;;;;;;;2.00;0.57;;;21.80;47.40;;;;;;10389439;28;20053;-60
2024/02/07 02:31:26;;;;;;;0.90;0.50;;;21.90;47.30;;;;;;10397257;28;20048;-61
2024/02/07 02:36:28;;;;;;;1.30;0.70;;;22.00;47.10;;;;;;10400730;28;20072;-59
2024/02/07 02:41:31;;;;;;;1.42;0.55;;;21.90;47.10;;;;;;10399053;28;20559;-58
2024/02/07 02:46:34;;;;;;;1.52;0.70;;;21.90;47.00;;;;;;10403107;28;20046;-60
2024/02/07 02:51:36;;;;;;;1.17;0.60;;;21.90;47.00;;;;;;10402068;28;20044;-57
2024/02/07 02:56:38;;;;;;;1.08;0.55;;;21.90;47.00;;;;;;10391452;28;20056;-60
2024/02/07 03:01:41;;;;;;;1.35;0.60;;;21.90;47.00;;;;;;10398862;28;20084;-60
2024/02/07 03:06:58;;;;;;;1.25;0.60;;;21.90;46.80;;;;;;10390208;28;20049;-61
2024/02/07 03:12:00;;;;;;;1.50;0.60;;;22.00;46.70;;;;;;10407431;28;20049;-59
2024/02/07 03:17:03;;;;;;;1.17;0.73;;;22.00;46.70;;;;;;10393318;28;20053;-60
2024/02/07 03:22:06;;;;;;;1.25;0.60;;;21.90;46.70;;;;;;10402294;28;20141;-59
2024/02/07 03:27:08;;;;;;;1.58;0.90;;;21.90;46.50;;;;;;10407355;28;20158;-61
2024/02/07 03:32:11;;;;;;;1.92;0.70;;;21.90;46.60;;;;;;10382212;28;20057;-59
2024/02/07 03:37:13;;;;;;;0.93;0.60;;;22.00;46.40;;;;;;10397309;28;20493;-59
2024/02/07 03:42:14;;;;;;;1.77;0.65;;;22.00;46.40;;;;;;10398431;28;20073;-58
2024/02/07 03:47:17;;;;;;;0.88;0.60;;;22.00;46.40;;;;;;10393631;28;20399;-59
2024/02/07 03:52:19;;;;;;;1.05;0.60;;;21.90;46.30;;;;;;10400130;28;20091;-59
2024/02/07 03:57:21;;;;;;;2.28;0.80;;;22.00;46.30;;;;;;10404395;28;20052;-56
2024/02/07 04:02:24;;;;;;;2.17;0.85;;;21.90;46.30;;;;;;10410639;28;20042;-58
2024/02/07 04:07:26;;;;;;;5.45;0.80;;;21.90;46.40;;;;;;10395787;28;20100;-57
2024/02/07 05:16:10;;;;;;;11.63;3.40;;;22.10;48.20;;;;;;10416236;28;20037;-56
2024/02/07 05:21:14;;;;;;;10.73;3.50;;;22.10;48.20;;;;;;10405732;28;20045;-57
2024/02/07 05:26:17;;;;;;;10.52;3.67;;;22.10;48.00;;;;;;10402095;28;20072;-57
2024/02/07 05:31:19;;;;;;;8.48;3.20;;;22.10;48.10;;;;;;10401022;28;20084;-57
2024/02/07 05:36:22;;;;;;;11.73;3.75;;;22.10;48.10;;;;;;10400077;28;20050;-57
2024/02/07 05:41:24;;;;;;;11.65;3.65;;;22.10;48.00;;;;;;10411747;28;20045;-56
2024/02/07 05:46:26;;;;;;;9.45;3.17;;;22.10;47.90;;;;;;10404214;28;20163;-57
2024/02/07 05:51:29;;;;;;;6.85;2.70;;;22.10;47.90;;;;;;10414341;28;20064;-56
2024/02/07 05:56:31;;;;;;;7.53;2.95;;;22.20;47.60;;;;;;10402273;28;20054;-56
2024/02/07 06:01:32;;;;;;;7.78;3.03;;;22.20;48.00;;;;;;10395960;28;20042;-57
2024/02/07 06:06:35;;;;;;;6.35;2.60;;;22.30;48.10;;;;;;10405740;28;20539;-57
2024/02/07 06:11:41;;;;;;;8.88;2.90;;;22.80;47.20;;;;;;10394633;28;20073;-57
2024/02/07 06:16:43;;;;;;;7.03;2.67;;;22.90;47.00;;;;;;10398533;28;20128;-59
2024/02/07 06:21:49;;;;;;;6.68;2.83;;;22.90;47.00;;;;;;10401071;28;20038;-59
2024/02/07 06:26:50;;;;;;;9.48;2.75;;;22.90;47.00;;;;;;10406822;28;20053;-61
2024/02/07 06:31:53;;;;;;;6.68;2.80;;;22.90;47.20;;;;;;10409844;28;20100;-59
2024/02/07 06:36:56;;;;;;;5.15;2.70;;;22.90;47.10;;;;;;10385697;28;20054;-60
2024/02/07 06:41:58;;;;;;;7.28;2.92;;;23.00;47.00;;;;;;10399145;28;20054;-54
2024/02/07 06:47:00;;;;;;;14.95;4.38;;;22.90;47.60;;;;;;10390554;28;20057;-58
2024/02/07 06:52:03;;;;;;;22.00;6.63;;;22.90;47.70;;;;;;10406808;28;20136;-57
2024/02/07 06:57:05;;;;;;;21.67;8.32;;;22.80;47.80;;;;;;10405339;28;20543;-56
2024/02/07 07:02:07;;;;;;;27.35;9.15;;;22.80;47.90;;;;;;10414746;28;20079;-56
2024/02/07 07:07:10;;;;;;;21.70;8.57;;;22.80;47.90;;;;;;10420824;28;20083;-61
2024/02/07 07:12:11;;;;;;;21.23;8.40;;;22.80;48.00;;;;;;10405566;28;20128;-53
2024/02/07 07:17:13;;;;;;;18.42;7.70;;;22.70;48.40;;;;;;10395257;28;20081;-59
2024/02/07 07:22:16;;;;;;;19.08;7.82;;;22.70;48.30;;;;;;10398034;28;20073;-62
2024/02/07 07:27:18;;;;;;;14.73;6.55;;;22.70;48.00;;;;;;10396981;28;20055;-65
2024/02/07 07:32:20;;;;;;;21.25;6.22;;;22.70;47.90;;;;;;10396696;28;20495;-64
2024/02/07 07:37:23;;;;;;;14.80;6.18;;;22.50;48.20;;;;;;10397925;28;20669;-56
2024/02/07 07:42:24;;;;;;;15.02;5.53;;;22.50;48.20;;;;;;10406220;28;20154;-57
2024/02/07 07:47:26;;;;;;;14.82;5.05;;;22.40;48.50;;;;;;10403024;28;20725;-54
2024/02/07 07:52:29;;;;;;;14.48;5.07;;;22.40;48.60;;;;;;10390796;28;20452;-56
2024/02/07 07:57:31;;;;;;;17.50;5.43;;;22.40;48.40;;;;;;10398169;28;20049;-54
2024/02/07 08:02:33;;;;;;;9.70;4.22;;;22.40;48.40;;;;;;10397434;28;20081;-54
2024/02/07 08:07:36;;;;;;;10.02;4.47;;;22.50;48.50;;;;;;10402360;28;20461;-56
2024/02/07 08:12:37;;;;;;;8.27;3.90;;;22.50;48.20;;;;;;10399996;28;20073;-56
2024/02/07 08:17:39;;;;;;;10.20;4.20;;;22.40;48.30;;;;;;10409539;28;20060;-52
2024/02/07 08:22:42;;;;;;;9.25;3.50;;;22.30;48.60;;;;;;10406823;28;20046;-54
2024/02/07 08:27:44;;;;;;;10.38;3.30;;;22.30;48.70;;;;;;10401910;28;20041;-57
2024/02/07 08:32:46;;;;;;;7.38;3.13;;;22.20;48.70;;;;;;10401379;22;20073;-92
2024/02/07 08:37:49;;;;;;;7.82;3.35;;;22.40;48.30;;;;;;10395043;28;20140;-91
2024/02/07 08:42:50;;;;;;;8.60;3.00;;;22.60;47.80;;;;;;10385463;28;20053;-92
2024/02/07 08:47:52;;;;;;;8.32;3.05;;;22.50;47.90;;;;;;10375339;28;20112;-92
2024/02/07 08:52:55;;;;;;;5.90;2.95;;;22.40;48.20;;;;;;10383985;28;20069;-92
2024/02/07 08:57:58;;;;;;;4.40;2.70;;;22.30;48.50;;;;;;10376871;28;20057;-92
2024/02/07 09:03:00;;;;;;;5.53;2.40;;;22.30;48.60;;;;;;10374513;28;20054;-92
2024/02/07 09:08:04;;;;;;;4.38;2.13;;;22.20;48.70;;;;;;10373216;28;20500;-92
2024/02/07 09:13:06;;;;;;;8.20;2.72;;;22.30;48.60;;;;;;10376264;28;20141;-91
2024/02/07 09:18:08;;;;;;;4.60;2.15;;;22.30;48.60;;;;;;10377434;28;20444;-92
2024/02/07 09:23:11;;;;;;;6.80;2.50;;;22.20;48.50;;;;;;10381335;28;20085;-91
2024/02/07 09:28:12;;;;;;;4.97;2.50;;;22.20;48.60;;;;;;10374381;28;20092;-91
2024/02/07 09:33:15;;;;;;;4.45;2.03;;;22.10;48.50;;;;;;10382983;28;20070;-92
2024/02/07 09:38:21;;;;;;;5.03;2.45;;;22.40;48.10;;;;;;10369211;28;20070;-90
2024/02/07 09:43:23;;;;;;;4.75;2.20;;;22.30;48.00;;;;;;10376655;28;20073;-91
2024/02/07 09:48:26;;;;;;;3.70;2.00;;;22.30;47.70;;;;;;10371881;28;20045;-90
2024/02/07 09:53:30;;;;;;;4.43;2.35;;;22.20;47.90;;;;;;10384550;28;20397;-91
2024/02/07 09:58:31;;;;;;;5.90;1.90;;;22.30;48.00;;;;;;10369010;28;20073;-91
2024/02/07 10:03:33;;;;;;;5.05;2.53;;;22.20;48.00;;;;;;10383471;28;20497;-91
2024/02/07 10:08:47;;;;;;;4.35;2.03;;;22.20;48.10;;;;;;10376217;28;20072;-91
2024/02/07 10:13:49;;;;;;;3.53;1.73;;;22.30;47.70;;;;;;10379461;28;20470;-91
2024/02/07 10:18:51;;;;;;;4.78;1.88;;;22.30;47.90;;;;;;10383154;28;20057;-90
2024/02/07 10:23:54;;;;;;;4.03;1.70;;;22.30;47.90;;;;;;10375264;28;20394;-90
2024/02/07 10:28:59;;;;;;;2.72;1.63;;;22.20;48.10;;;;;;10378739;28;20053;-91
2024/02/07 10:34:01;;;;;;;5.20;2.00;;;22.20;47.90;;;;;;10386219;28;20045;-91
2024/02/07 10:39:04;;;;;;;4.20;1.90;;;22.20;48.20;;;;;;10385753;28;20149;-91
2024/02/07 10:44:06;;;;;;;3.50;1.63;;;22.30;47.70;;;;;;10376083;28;20517;-91
2024/02/07 10:49:09;;;;;;;5.25;1.95;;;22.20;47.40;;;;;;10379623;28;20133;-92
2024/02/07 10:54:13;;;;;;;2.47;1.60;;;22.10;47.90;;;;;;10377984;28;20140;-92
2024/02/07 10:59:14;;;;;;;3.03;1.55;;;22.20;47.60;;;;;;10383843;28;20069;-92
2024/02/07 11:04:16;;;;;;;3.65;1.45;;;22.10;47.60;;;;;;10374643;28;20046;-92
2024/02/07 11:09:19;;;;;;;3.72;1.70;;;22.00;47.60;;;;;;10376918;28;20140;-92
2024/02/07 11:14:21;;;;;;;3.63;1.48;;;22.20;47.30;;;;;;10369033;28;20093;-93
2024/02/07 11:19:23;;;;;;;4.80;1.48;;;22.10;47.60;;;;;;10378590;28;20045;-92
2024/02/07 11:24:26;;;;;;;3.53;1.40;;;22.10;47.60;;;;;;10390228;28;20046;-90
2024/02/07 11:29:29;;;;;;;3.90;1.75;;;21.90;47.60;;;;;;10377437;28;20099;-92
2024/02/07 11:34:32;;;;;;;2.42;1.20;;;21.90;47.80;;;;;;10374044;28;20049;-92
2024/02/07 11:39:39;;;;;;;2.28;1.30;;;21.80;47.70;;;;;;10390023;28;20046;-91
2024/02/07 11:44:52;;;;;;;2.13;1.30;;;21.90;47.50;;;;;;10369550;28;20046;-89
2024/02/07 11:49:57;;;;;;;3.08;1.25;;;21.90;47.50;;;;;;10378751;28;20054;-92
2024/02/07 11:55:05;;;;;;;2.60;1.40;;;21.90;47.50;;;;;;10371017;28;20049;-90
2024/02/07 12:00:08;;;;;;;2.28;1.40;;;21.90;47.60;;;;;;10375465;28;20144;-92
2024/02/07 12:05:13;;;;;;;2.55;1.25;;;21.90;47.50;;;;;;10371770;28;20057;-93
2024/02/07 12:10:16;;;;;;;4.47;1.15;;;21.90;47.60;;;;;;10382915;28;20508;-92
2024/02/07 12:15:18;;;;;;;2.13;1.38;;;21.90;47.70;;;;;;10381869;28;20068;-91
2024/02/07 12:20:20;;;;;;;1.90;1.20;;;21.90;47.50;;;;;;10381471;28;20080;-91
2024/02/07 12:25:23;;;;;;;2.72;1.30;;;21.80;47.50;;;;;;10391988;28;20132;-91
2024/02/07 12:30:25;;;;;;;1.90;1.00;;;21.80;47.60;;;;;;10386387;28;20129;-92
2024/02/07 12:35:26;;;;;;;3.30;1.20;;;21.70;47.80;;;;;;10383801;28;20085;-90
2024/02/07 12:40:30;;;;;;;2.35;1.05;;;21.70;47.40;;;;;;10383408;28;20053;-90
2024/02/07 12:45:32;;;;;;;5.93;1.42;;;21.70;47.10;;;;;;10375574;28;20050;-92
2024/02/07 12:50:34;;;;;;;2.13;1.10;;;21.70;47.40;;;;;;10368733;28;20061;-92
2024/02/07 12:55:37;;;;;;;2.40;1.20;;;21.70;47.30;;;;;;10380836;28;20046;-91
2024/02/07 13:00:39;;;;;;;2.92;1.00;;;21.70;47.40;;;;;;10370735;28;20048;-92
2024/02/07 13:05:41;;;;;;;3.05;1.30;;;21.80;47.00;;;;;;10383315;28;20137;-91
2024/02/07 13:10:45;;;;;;;1.92;1.13;;;22.00;46.80;;;;;;10387486;28;20045;-90
2024/02/07 13:15:47;;;;;;;2.63;1.20;;;22.00;46.90;;;;;;10385473;28;20050;-90
2024/02/07 13:20:48;;;;;;;2.08;0.80;;;22.00;46.80;;;;;;10383522;28;20064;-91
2024/02/07 13:25:52;;;;;;;2.47;1.05;;;21.80;47.30;;;;;;10372160;28;20157;-92
2024/02/07 13:30:53;;;;;;;3.28;1.00;;;21.70;47.40;;;;;;10383231;28;20057;-93
2024/02/07 13:35:55;;;;;;;1.95;1.10;;;21.90;47.40;;;;;;10383763;28;20084;-93
2024/02/07 13:40:58;;;;;;;2.08;1.05;;;21.90;47.10;;;;;;10383230;28;20049;-91
2024/02/07 13:46:00;;;;;;;2.85;1.00;;;21.90;47.10;;;;;;10372038;28;20101;-92
2024/02/07 13:51:02;;;;;;;2.95;1.23;;;22.00;47.00;;;;;;10384158;28;20066;-92
2024/02/07 13:56:06;;;;;;;2.05;1.20;;;22.10;46.80;;;;;;10382326;28;20046;-92
2024/02/07 14:01:07;;;;;;;3.22;1.20;;;22.40;46.50;;;;;;10376116;28;20042;-92
2024/02/07 14:06:09;;;;;;;3.85;1.00;;;22.40;46.40;;;;;;10384901;28;20050;-93
2024/02/07 14:11:12;;;;;;;3.35;1.10;;;22.40;46.50;;;;;;10382351;28;20046;-90
2024/02/07 14:16:14;;;;;;;9.60;1.33;;;22.50;46.80;;;;;;10384893;28;20049;-94
2024/02/07 14:21:16;;;;;;;2.92;1.00;;;22.50;47.20;;;;;;10387863;28;20674;-92
2024/02/07 14:26:19;;;;;;;14.77;1.20;;;22.50;47.00;;;;;;10386365;28;20033;-93
2024/02/07 14:31:22;;;;;;;5.28;1.45;;;22.50;47.10;;;;;;10380676;28;20049;-92
2024/02/07 14:36:23;;;;;;;6.28;1.75;;;22.50;47.10;;;;;;10380997;28;20045;-93
2024/02/07 14:41:27;;;;;;;7.20;1.40;;;22.50;47.30;;;;;;10366446;28;20038;-92
2024/02/07 14:46:28;;;;;;;5.35;1.40;;;22.50;47.40;;;;;;10378658;28;20046;-92
2024/02/07 14:51:30;;;;;;;3.72;1.60;;;22.50;47.20;;;;;;10375673;28;20046;-92
2024/02/07 14:56:33;;;;;;;7.28;1.52;;;22.20;48.30;;;;;;10375552;28;20046;-92
2024/02/07 15:01:40;;;;;;;3.47;1.30;;;22.00;48.70;;;;;;10378113;28;20134;-92
2024/02/07 15:06:45;;;;;;;2.38;1.17;;;22.20;48.50;;;;;;10375073;28;20053;-92
2024/02/07 15:11:55;;;;;;;4.25;1.20;;;22.10;48.40;;;;;;10380507;28;20046;-92
2024/02/07 15:16:57;;;;;;;4.22;1.15;;;22.30;48.10;;;;;;10368018;28;20050;-92
2024/02/07 15:21:59;;;;;;;5.03;0.95;;;22.50;47.80;;;;;;10379948;28;20046;-92
2024/02/07 15:27:02;;;;;;;4.10;1.30;;;22.20;48.40;;;;;;10375123;28;20073;-91
2024/02/07 15:32:06;;;;;;;6.40;1.30;;;22.10;48.90;;;;;;10379164;28;20116;-91
2024/02/07 15:37:08;;;;;;;9.32;1.15;;;22.10;49.30;;;;;;10379133;28;20060;-93
2024/02/07 15:42:11;;;;;;;7.13;1.15;;;22.60;48.70;;;;;;10379622;28;20046;-93
2024/02/07 15:47:16;;;;;;;8.38;1.73;;;22.40;50.00;;;;;;10382185;28;20050;-91
2024/02/07 15:52:18;;;;;;;5.97;1.48;;;22.60;50.90;;;;;;10388351;28;20078;-92
2024/02/07 15:57:21;;;;;;;5.97;2.03;;;22.40;51.90;;;;;;10377232;28;20529;-93
2024/02/07 16:02:37;;;;;;;165.52;59.80;;;22.70;51.70;;;;;;10383722;28;20066;-92
2024/02/07 16:07:47;;;;;;;86.20;33.15;;;22.90;50.00;;;;;;10384265;28;20042;-92
2024/02/07 16:12:50;;;;;;;71.60;27.25;;;22.70;45.30;;;;;;10396544;28;20033;-93
2024/02/07 16:18:06;;;;;;;52.72;20.05;;;22.50;45.00;;;;;;10374163;28;20057;-90
2024/02/07 16:23:18;;;;;;;41.55;15.02;;;22.40;44.20;;;;;;10361768;28;20069;-90
2024/02/07 16:28:21;;;;;;;31.83;13.70;;;22.30;44.80;;;;;;10377404;28;20078;-90
2024/02/07 16:33:30;;;;;;;30.17;11.63;;;22.30;45.20;;;;;;10386168;28;20049;-91
2024/02/07 16:38:31;;;;;;;29.73;11.20;;;22.40;45.40;;;;;;10400579;28;20108;-91
2024/02/07 16:43:47;;;;;;;25.40;8.98;;;22.40;46.10;;;;;;10386111;28;20130;-91
2024/02/07 16:48:56;;;;;;;28.45;9.18;;;22.40;46.40;;;;;;10388154;28;20062;-91
2024/02/07 16:53:58;;;;;;;20.55;7.60;;;22.50;46.20;;;;;;10399278;28;20424;-89
2024/02/07 16:59:01;;;;;;;19.80;7.63;;;22.70;46.10;;;;;;10380130;28;20050;-91
2024/02/07 17:04:03;;;;;;;19.77;7.57;;;22.70;46.00;;;;;;10383512;28;20053;-88
2024/02/07 17:09:11;;;;;;;13.68;5.55;;;22.80;45.90;;;;;;10376641;28;20456;-92
2024/02/07 17:14:14;;;;;;;14.05;4.93;;;22.90;44.60;;;;;;10384386;28;20057;-92
2024/02/07 17:19:25;;;;;;;12.18;4.45;;;23.20;43.50;;;;;;10384448;28;20108;-91
2024/02/07 17:24:27;;;;;;;10.02;3.75;;;23.20;43.10;;;;;;10373389;28;20050;-89
2024/02/07 17:35:39;;;;;;;7.70;3.80;;;23.10;42.70;;;;;;10387360;28;20033;-93
2024/02/07 17:40:48;;;;;;;10.32;3.40;;;22.80;42.70;;;;;;10375746;28;20061;-90
2024/02/07 17:45:50;;;;;;;8.20;3.40;;;22.70;42.80;;;;;;10373900;28;20052;-91
2024/02/07 17:51:02;;;;;;;8.80;3.10;;;22.70;42.60;;;;;;10384566;28;20038;-92
2024/02/07 17:56:04;;;;;;;6.90;3.22;;;22.80;42.80;;;;;;10374311;28;20054;-90
2024/02/07 18:01:13;;;;;;;6.43;3.25;;;22.80;42.90;;;;;;10358544;28;20042;-90
2024/02/07 18:06:16;;;;;;;7.38;3.20;;;22.70;43.80;;;;;;10378140;28;20069;-91
2024/02/07 18:11:28;;;;;;;10.10;3.08;;;22.70;44.20;;;;;;10373898;28;20069;-91
2024/02/07 18:16:30;;;;;;;10.57;2.97;;;22.70;44.40;;;;;;10375668;28;20129;-91
2024/02/07 18:21:58;;;;;;;14.70;3.53;;;22.80;44.70;;;;;;10374911;28;20200;-90
2024/02/07 18:27:04;;;;;;;6.22;2.75;;;22.70;44.20;;;;;;10363364;28;20057;-90
2024/02/07 18:32:12;;;;;;;5.53;2.90;;;23.00;43.80;;;;;;10371510;28;20041;-90
2024/02/07 18:37:18;;;;;;;10.40;3.53;;;23.20;43.30;;;;;;10369610;28;20117;-89
2024/02/07 18:42:23;;;;;;;10.43;3.67;;;22.90;43.70;;;;;;10376436;28;20064;-88
2024/02/07 18:47:25;;;;;;;13.90;4.13;;;22.80;44.70;;;;;;10380756;28;20073;-88
2024/02/07 18:52:28;;;;;;;12.70;3.78;;;22.80;45.80;;;;;;10380413;28;20137;-89
2024/02/07 18:57:31;;;;;;;9.05;3.67;;;22.80;46.20;;;;;;10377093;28;20050;-89
2024/02/07 19:02:44;;;;;;;11.38;3.55;;;23.10;44.80;;;;;;10386709;28;20056;-91
2024/02/07 19:07:47;;;;;;;12.02;3.50;;;23.40;44.40;;;;;;10385335;28;20103;-91
2024/02/07 19:12:50;;;;;;;14.35;3.35;;;23.00;45.70;;;;;;10380891;28;20045;-90
2024/02/07 19:17:52;;;;;;;17.23;3.10;;;22.80;46.40;;;;;;10374598;28;20045;-91
2024/02/07 19:22:56;;;;;;;8.80;3.30;;;23.10;45.40;;;;;;10375331;28;20080;-92
2024/02/07 19:27:58;;;;;;;8.68;3.30;;;23.40;44.30;;;;;;10375374;28;20077;-92
2024/02/07 19:33:00;;;;;;;12.20;3.30;;;22.70;45.70;;;;;;10377479;28;20116;-92
2024/02/07 19:38:09;;;;;;;10.63;2.85;;;22.80;46.60;;;;;;10381639;28;20180;-93
2024/02/07 19:43:13;;;;;;;7.00;3.05;;;22.90;46.70;;;;;;10374547;28;20046;-91
2024/02/07 19:48:15;;;;;;;11.52;2.65;;;23.10;46.30;;;;;;10383335;28;20050;-91
2024/02/07 19:53:18;;;;;;;14.10;2.92;;;22.80;47.40;;;;;;10377562;28;20046;-91
2024/02/07 19:58:20;;;;;;;16.05;2.92;;;22.60;48.20;;;;;;10381152;28;20081;-90
2024/02/07 20:03:22;;;;;;;10.30;2.65;;;22.40;49.40;;;;;;10374281;28;20070;-91
2024/02/07 20:08:25;;;;;;;10.93;2.88;;;22.60;49.70;;;;;;10372248;28;20073;-91
2024/02/07 20:13:27;;;;;;;8.10;2.72;;;23.10;48.70;;;;;;10375697;28;20039;-89
2024/02/07 20:18:29;;;;;;;5.70;2.35;;;23.20;47.80;;;;;;10371394;28;20049;-90
2024/02/07 20:23:35;;;;;;;4.10;2.40;;;22.90;48.20;;;;;;10372372;28;20049;-89
2024/02/07 20:28:39;;;;;;;6.63;2.70;;;22.80;47.90;;;;;;10375497;28;20137;-89
2024/02/07 20:33:41;;;;;;;9.27;2.70;;;22.90;47.50;;;;;;10383105;28;20456;-90
2024/02/07 20:38:53;;;;;;;11.63;3.35;;;23.00;47.10;;;;;;10378284;28;20069;-90
2024/02/07 20:43:57;;;;;;;8.90;3.05;;;22.80;47.40;;;;;;10397589;28;20050;-89
2024/02/07 20:49:08;;;;;;;8.05;2.90;;;22.60;48.20;;;;;;10376170;28;20052;-90
2024/02/07 20:54:11;;;;;;;6.53;3.17;;;22.40;48.90;;;;;;10375817;28;20467;-91
2024/02/07 20:59:14;;;;;;;11.30;3.63;;;22.40;48.70;;;;;;10372168;28;20472;-91
2024/02/07 21:04:16;;;;;;;9.30;3.80;;;22.40;49.10;;;;;;10381527;28;20053;-90
2024/02/07 21:09:19;;;;;;;10.05;3.35;;;22.40;49.10;;;;;;10386310;28;20050;-93
2024/02/07 21:14:21;;;;;;;4.90;2.92;;;22.60;48.10;;;;;;10379161;28;20054;-89
2024/02/07 21:19:23;;;;;;;7.47;3.42;;;22.90;46.40;;;;;;10373653;28;20424;-91
2024/02/07 21:24:30;;;;;;;4.95;2.90;;;22.60;46.70;;;;;;10366401;28;20092;-91
2024/02/07 21:29:36;;;;;;;4.78;3.00;;;22.40;47.00;;;;;;10372326;28;20057;-90
2024/02/07 21:34:38;;;;;;;5.00;3.00;;;22.60;46.40;;;;;;10374686;28;20050;-91
2024/02/07 21:39:41;;;;;;;7.25;3.20;;;22.60;46.40;;;;;;10389808;28;20095;-89
2024/02/07 21:44:43;;;;;;;4.85;2.85;;;22.30;46.80;;;;;;10377003;28;20137;-90
2024/02/07 21:49:45;;;;;;;4.38;2.78;;;22.10;47.40;;;;;;10380160;28;20074;-89
2024/02/07 21:54:52;;;;;;;4.30;2.63;;;22.40;46.40;;;;;;10376185;28;20671;-90
2024/02/07 21:59:56;;;;;;;4.78;2.90;;;22.50;46.10;;;;;;10378268;28;20050;-91
2024/02/07 22:04:58;;;;;;;4.70;2.63;;;22.40;46.00;;;;;;10373307;28;20054;-90
2024/02/07 22:10:01;;;;;;;3.75;2.67;;;22.20;46.70;;;;;;10378160;28;20061;-89
2024/02/07 22:15:04;;;;;;;8.95;3.10;;;22.20;46.80;;;;;;10379740;28;20092;-89
2024/02/07 22:20:10;;;;;;;4.80;2.45;;;22.30;46.50;;;;;;10371671;28;20512;-90
2024/02/07 22:25:13;;;;;;;4.20;2.67;;;22.50;45.90;;;;;;10377243;28;20050;-89
2024/02/07 22:30:15;;;;;;;3.63;2.30;;;22.70;45.20;;;;;;10377505;28;20042;-89
2024/02/07 22:35:17;;;;;;;3.10;2.30;;;22.50;45.50;;;;;;10374233;28;20104;-88
2024/02/07 22:40:21;;;;;;;4.15;2.13;;;22.50;45.60;;;;;;10372886;28;20097;-89
2024/02/07 22:45:25;;;;;;;5.30;2.55;;;22.30;45.90;;;;;;10366403;28;20104;-90
2024/02/07 22:50:26;;;;;;;3.25;2.40;;;22.30;46.00;;;;;;10371676;28;20592;-90
2024/02/07 22:55:33;;;;;;;3.03;2.30;;;22.50;45.20;;;;;;10372035;28;20461;-89
2024/02/07 23:00:36;;;;;;;3.33;2.10;;;22.70;44.80;;;;;;10366460;28;20046;-92
2024/02/07 23:05:38;;;;;;;3.20;2.03;;;22.90;44.40;;;;;;10368329;28;20046;-90
2024/02/07 23:10:41;;;;;;;2.65;2.00;;;22.50;45.00;;;;;;10372616;28;20050;-90
2024/02/07 23:15:44;;;;;;;3.55;2.10;;;22.50;45.40;;;;;;10379791;28;20049;-90
2024/02/07 23:20:46;;;;;;;3.28;2.20;;;22.70;44.70;;;;;;10380374;28;20098;-91
2024/02/07 23:25:52;;;;;;;3.40;2.13;;;22.80;44.30;;;;;;10383956;28;20097;-90
2024/02/07 23:30:54;;;;;;;2.10;1.85;;;23.00;44.00;;;;;;10373440;28;20070;-91
2024/02/07 23:35:59;;;;;;;2.42;1.90;;;22.80;44.30;;;;;;10369785;28;20045;-91
2024/02/07 23:41:02;;;;;;;2.65;2.08;;;22.40;45.20;;;;;;10361254;28;20108;-91
2024/02/07 23:46:04;;;;;;;2.75;2.00;;;22.60;44.90;;;;;;10359147;28;20066;-88
2024/02/07 23:51:06;;;;;;;3.88;2.10;;;22.90;44.10;;;;;;10369869;28;20081;-88
2024/02/07 23:56:09;;;;;;;2.65;1.88;;;22.90;43.80;;;;;;10369907;28;20140;-90
